Carrothers, Ohio
Current Conditions -  °F | °C
As of 5:03 AM on Tuesday 21 Oct 2014 (Local Time) from KMFD Reporting Station
Light Rain Light Rain  
Wind Chill: 50°   Ceiling: 700
Heat Index: 50°   Visibility: 4mi
Dew Point: 49°   Wind: 9mph
Humidity: 96%   Direction: 300°WNW
Pressure: 29.87"   Gusts: NA
Location:  41.0654°N, 82.876°W
Report Text: KMFD 210903Z AUTO 30008KT 4SM -RA BR SCT002 BKN007 OVC012 10/09 A2987 RMK AO2 RAB0856 P0000 T01000094
Loading
Personal Weather Stations






























Interactive Weather Map
Tropical Storm Tracking
New forecast layout! Learn more

10-Day Weather Forecast

Advertisements
Track Severe Weather on mobile